Edinburg, Pennsylvania
Current Conditions -  °F | °C
As of 6:56 AM on Tuesday 27 Jan 2015 (Local Time) from KUCP Reporting Station
Light Snow Light Snow  
Wind Chill: -13°   Ceiling: 1200
Heat Index: -8°   Visibility: 10mi
Dew Point: -10°   Wind: 7mph
Humidity: 84%   Direction: 330°NNW
Pressure: 29.91"   Gusts: NA
Location:  41.01°N, 80.44°W
Report Text: KUCP 271156Z AUTO 33006KT 10SM -SN OVC012 M08/M10 A2991 RMK AO2 53011 60000 70004 T10771100 11072 21077 P0000 SLP160
Loading
Personal Weather Stations






























Interactive Weather Map New forecast layout! Learn more

10-Day Weather Forecast

Advertisements
Track Severe Weather on mobile